createdAt,value
2022-08-03T00:07:53.465Z,98040
2022-08-03T00:19:53.545Z,98030
2022-08-03T00:32:00.189Z,98030
2022-08-03T00:43:53.478Z,98030
2022-08-03T00:55:53.442Z,98020
2022-08-03T01:07:53.465Z,98020
2022-08-03T01:19:53.470Z,98020
2022-08-03T01:33:02.785Z,98010
2022-08-03T01:44:26.193Z,98000
2022-08-03T01:55:53.472Z,98000
2022-08-03T02:07:53.451Z,98000
2022-08-03T02:19:53.466Z,98000
2022-08-03T02:31:53.457Z,98000
2022-08-03T02:44:07.222Z,97990
2022-08-03T02:55:53.472Z,97990
2022-08-03T03:07:53.485Z,97990
2022-08-03T03:19:53.530Z,97990
2022-08-03T03:31:53.507Z,97980
2022-08-03T03:43:53.511Z,98000
2022-08-03T03:55:59.530Z,98000
2022-08-03T04:07:53.450Z,98000
2022-08-03T04:19:53.477Z,98000
2022-08-03T04:31:53.455Z,98000
2022-08-03T04:43:53.466Z,98000
2022-08-03T04:55:53.434Z,98010
2022-08-03T05:07:53.436Z,98010
2022-08-03T05:19:53.410Z,98000
2022-08-03T05:31:53.444Z,98010
2022-08-03T05:43:53.462Z,98000
2022-08-03T05:55:56.975Z,98000
2022-08-03T06:07:53.456Z,98000
2022-08-03T06:19:53.472Z,98010
2022-08-03T06:31:53.462Z,98010
2022-08-03T06:44:03.928Z,98000
2022-08-03T06:55:54.882Z,98010
2022-08-03T07:07:53.457Z,98010
2022-08-03T07:19:53.490Z,98020
2022-08-03T07:31:53.453Z,98020
2022-08-03T07:43:53.454Z,98020
2022-08-03T07:55:53.470Z,98010
2022-08-03T08:07:53.453Z,98000
2022-08-03T08:19:53.614Z,98010
2022-08-03T08:31:53.462Z,98000
2022-08-03T08:43:58.126Z,98000
2022-08-03T08:55:59.365Z,98000
2022-08-03T09:07:53.456Z,97990
2022-08-03T09:20:03.609Z,97990
2022-08-03T09:31:53.457Z,97980
2022-08-03T09:43:53.459Z,97980
2022-08-03T09:56:33.220Z,97980
2022-08-03T10:07:53.460Z,97980
2022-08-03T10:19:53.467Z,97970
2022-08-03T10:31:57.282Z,97950
2022-08-03T10:43:53.471Z,97950
2022-08-03T10:55:53.460Z,97930
2022-08-03T11:07:54.767Z,97910
2022-08-03T11:19:57.662Z,97910
2022-08-03T11:31:53.459Z,97900
2022-08-03T11:43:53.466Z,97890
2022-08-03T11:55:53.449Z,97890
2022-08-03T12:08:04.421Z,97880
2022-08-03T12:19:53.479Z,97870
2022-08-03T12:31:53.407Z,97870
2022-08-03T12:43:53.470Z,97860
2022-08-03T12:55:57.662Z,97850
2022-08-03T13:07:53.459Z,97850
2022-08-03T13:19:53.484Z,97840
2022-08-03T13:31:53.688Z,97830
2022-08-03T13:44:12.063Z,97820
2022-08-03T13:55:53.439Z,97810
2022-08-03T14:07:55.134Z,97800
2022-08-03T14:19:54.138Z,97790
2022-08-03T14:32:09.642Z,97770
2022-08-03T14:44:01.333Z,97770
2022-08-03T14:55:53.532Z,97760
2022-08-03T15:07:53.452Z,97750
2022-08-03T15:20:02.165Z,97730
2022-08-03T15:31:53.478Z,97720
2022-08-03T15:43:53.430Z,97710
2022-08-03T15:55:53.466Z,97700
2022-08-03T16:08:02.825Z,97700
2022-08-03T16:19:55.127Z,97690
2022-08-03T16:31:53.447Z,97670
2022-08-03T16:43:53.459Z,97680
2022-08-03T16:55:54.373Z,97670
2022-08-03T17:07:54.054Z,97670
2022-08-03T17:19:55.173Z,97670
2022-08-03T17:31:53.463Z,97670
2022-08-03T17:44:15.738Z,97660
2022-08-03T17:55:59.070Z,97670
2022-08-03T18:07:59.505Z,97680
2022-08-03T18:20:03.343Z,97680
2022-08-03T18:32:01.532Z,97680
2022-08-03T18:44:06.730Z,97680
2022-08-03T18:56:01.857Z,97690
2022-08-03T19:07:58.354Z,97710
2022-08-03T19:19:53.464Z,97710
2022-08-03T19:31:58.783Z,97720
2022-08-03T19:43:57.681Z,97720
2022-08-03T19:55:53.454Z,97730
2022-08-03T20:07:53.465Z,97730
2022-08-03T20:19:53.465Z,97730
2022-08-03T20:31:53.439Z,97730
2022-08-03T20:43:53.474Z,97730
2022-08-03T20:56:02.175Z,97730
2022-08-03T21:08:05.549Z,97730
2022-08-03T21:19:53.522Z,97740
2022-08-03T21:31:53.509Z,97720
2022-08-03T21:43:53.500Z,97720
2022-08-03T21:55:53.498Z,97720
2022-08-03T22:07:53.568Z,97730
2022-08-03T22:19:53.494Z,97730
2022-08-03T22:31:58.916Z,97730
2022-08-03T22:43:54.272Z,97730
2022-08-03T22:55:53.493Z,97730
2022-08-03T23:07:53.496Z,97730
2022-08-03T23:19:53.735Z,97730
2022-08-03T23:31:53.550Z,97740
2022-08-03T23:43:54.370Z,97740
2022-08-03T23:55:53.453Z,97740
